Terminal Aerodrome Forecast
Issued by NWS

Home | Current Version | Previous Version | Text Only | Print | Product List | Glossary On
Versions: 1 2 3 4 5 6 7 8 9 10 11 12 13 14 15 16 17
995
FTPA31 PHFO 291140
TAFHTO
TAF
PHTO 291140Z 2912/3012 24006KT P6SM FEW030 SCT045
     FM291500 18006KT P6SM VCSH SCT030 BKN045
     FM292100 12010G18KT P6SM VCSH SCT030 BKN045
     FM300600 21006KT P6SM VCSH SCT020 BKN035=

USA.gov is the U.S. government's official web portal to all federal, state and local government web resources and services.